sensor_id;sensor_type;location;lat;lon;timestamp;temperature;humidity
19970;DHT22;10146;47.754;9.566;2022-09-09T00:04:26;13.50;99.90
19970;DHT22;10146;47.754;9.566;2022-09-09T00:12:43;13.60;99.90
19970;DHT22;10146;47.754;9.566;2022-09-09T00:15:19;13.60;99.90
19970;DHT22;10146;47.754;9.566;2022-09-09T00:18:07;13.60;99.90
19970;DHT22;10146;47.754;9.566;2022-09-09T00:20:48;13.50;99.90
19970;DHT22;10146;47.754;9.566;2022-09-09T00:23:25;13.50;99.90
19970;DHT22;10146;47.754;9.566;2022-09-09T00:31:54;13.50;99.90
19970;DHT22;10146;47.754;9.566;2022-09-09T00:34:24;13.60;99.90
19970;DHT22;10146;47.754;9.566;2022-09-09T00:36:53;13.50;99.90
19970;DHT22;10146;47.754;9.566;2022-09-09T00:39:32;13.50;99.90
19970;DHT22;10146;47.754;9.566;2022-09-09T00:42:08;13.40;99.90
19970;DHT22;10146;47.754;9.566;2022-09-09T00:44:37;13.40;99.90
19970;DHT22;10146;47.754;9.566;2022-09-09T00:50:21;13.40;99.90
19970;DHT22;10146;47.754;9.566;2022-09-09T00:56:08;13.30;99.90
19970;DHT22;10146;47.754;9.566;2022-09-09T00:58:35;13.30;99.90
19970;DHT22;10146;47.754;9.566;2022-09-09T01:01:07;13.30;99.90
19970;DHT22;10146;47.754;9.566;2022-09-09T01:03:37;13.30;99.90
19970;DHT22;10146;47.754;9.566;2022-09-09T01:06:30;13.30;99.90
19970;DHT22;10146;47.754;9.566;2022-09-09T01:11:55;13.30;99.90
19970;DHT22;10146;47.754;9.566;2022-09-09T01:16:58;13.30;99.90
19970;DHT22;10146;47.754;9.566;2022-09-09T01:19:40;13.30;99.90
19970;DHT22;10146;47.754;9.566;2022-09-09T01:27:27;13.20;99.90
19970;DHT22;10146;47.754;9.566;2022-09-09T01:29:53;13.10;99.90
19970;DHT22;10146;47.754;9.566;2022-09-09T01:35:03;13.10;99.90
19970;DHT22;10146;47.754;9.566;2022-09-09T01:37:29;13.00;99.90
19970;DHT22;10146;47.754;9.566;2022-09-09T01:39:55;13.00;99.90
19970;DHT22;10146;47.754;9.566;2022-09-09T01:42:20;13.00;99.90
19970;DHT22;10146;47.754;9.566;2022-09-09T01:44:46;13.00;99.90
19970;DHT22;10146;47.754;9.566;2022-09-09T01:47:12;13.00;99.90
19970;DHT22;10146;47.754;9.566;2022-09-09T01:49:37;13.00;99.90
19970;DHT22;10146;47.754;9.566;2022-09-09T01:52:03;13.00;99.90
19970;DHT22;10146;47.754;9.566;2022-09-09T01:54:31;12.90;99.90
19970;DHT22;10146;47.754;9.566;2022-09-09T02:00:08;12.90;99.90
19970;DHT22;10146;47.754;9.566;2022-09-09T02:08:21;13.00;99.90
19970;DHT22;10146;47.754;9.566;2022-09-09T02:11:18;12.90;99.90
19970;DHT22;10146;47.754;9.566;2022-09-09T02:13:47;12.90;99.90
19970;DHT22;10146;47.754;9.566;2022-09-09T02:16:40;12.90;99.90
19970;DHT22;10146;47.754;9.566;2022-09-09T02:21:44;12.70;99.90
19970;DHT22;10146;47.754;9.566;2022-09-09T02:24:13;12.70;99.90
19970;DHT22;10146;47.754;9.566;2022-09-09T02:26:42;12.70;99.90
19970;DHT22;10146;47.754;9.566;2022-09-09T02:29:24;12.60;99.90
19970;DHT22;10146;47.754;9.566;2022-09-09T02:31:52;12.60;99.90
19970;DHT22;10146;47.754;9.566;2022-09-09T02:34:21;12.60;99.90
19970;DHT22;10146;47.754;9.566;2022-09-09T02:36:50;12.60;99.90
19970;DHT22;10146;47.754;9.566;2022-09-09T02:39:16;12.60;99.90
19970;DHT22;10146;47.754;9.566;2022-09-09T02:41:42;12.60;99.90
19970;DHT22;10146;47.754;9.566;2022-09-09T02:44:12;12.50;99.90
19970;DHT22;10146;47.754;9.566;2022-09-09T02:47:16;12.60;99.90
19970;DHT22;10146;47.754;9.566;2022-09-09T02:52:27;12.60;99.90
19970;DHT22;10146;47.754;9.566;2022-09-09T02:55:04;12.60;99.90
19970;DHT22;10146;47.754;9.566;2022-09-09T02:57:33;12.60;99.90
19970;DHT22;10146;47.754;9.566;2022-09-09T03:00:00;12.70;99.90
19970;DHT22;10146;47.754;9.566;2022-09-09T03:02:26;12.70;99.90
19970;DHT22;10146;47.754;9.566;2022-09-09T03:04:52;12.80;99.90
19970;DHT22;10146;47.754;9.566;2022-09-09T03:07:21;12.80;99.90
19970;DHT22;10146;47.754;9.566;2022-09-09T03:09:47;12.90;99.90
19970;DHT22;10146;47.754;9.566;2022-09-09T03:12:12;12.90;99.90
19970;DHT22;10146;47.754;9.566;2022-09-09T03:14:38;13.00;99.90
19970;DHT22;10146;47.754;9.566;2022-09-09T03:17:05;13.10;99.90
19970;DHT22;10146;47.754;9.566;2022-09-09T03:19:31;13.10;99.90
19970;DHT22;10146;47.754;9.566;2022-09-09T03:21:57;13.10;99.90
19970;DHT22;10146;47.754;9.566;2022-09-09T03:24:24;13.10;99.90
19970;DHT22;10146;47.754;9.566;2022-09-09T03:26:50;13.20;99.90
19970;DHT22;10146;47.754;9.566;2022-09-09T03:29:16;13.20;99.90
19970;DHT22;10146;47.754;9.566;2022-09-09T03:31:43;13.20;99.90
19970;DHT22;10146;47.754;9.566;2022-09-09T03:34:09;13.20;99.90
19970;DHT22;10146;47.754;9.566;2022-09-09T03:36:35;13.20;99.90
19970;DHT22;10146;47.754;9.566;2022-09-09T03:39:00;13.20;99.90
19970;DHT22;10146;47.754;9.566;2022-09-09T03:41:28;13.30;99.90
19970;DHT22;10146;47.754;9.566;2022-09-09T03:43:54;13.30;99.90
19970;DHT22;10146;47.754;9.566;2022-09-09T03:46:21;13.30;99.90
19970;DHT22;10146;47.754;9.566;2022-09-09T03:48:47;13.30;99.90
19970;DHT22;10146;47.754;9.566;2022-09-09T03:51:13;13.30;99.90
19970;DHT22;10146;47.754;9.566;2022-09-09T03:53:38;13.30;99.90
19970;DHT22;10146;47.754;9.566;2022-09-09T03:56:05;13.30;99.90
19970;DHT22;10146;47.754;9.566;2022-09-09T03:58:33;13.30;99.90
19970;DHT22;10146;47.754;9.566;2022-09-09T04:01:04;13.30;99.90
19970;DHT22;10146;47.754;9.566;2022-09-09T04:03:30;13.30;99.90
19970;DHT22;10146;47.754;9.566;2022-09-09T04:05:58;13.20;99.90
19970;DHT22;10146;47.754;9.566;2022-09-09T04:08:24;13.10;99.90
19970;DHT22;10146;47.754;9.566;2022-09-09T04:10:53;13.10;99.90
19970;DHT22;10146;47.754;9.566;2022-09-09T04:13:22;13.10;99.90
19970;DHT22;10146;47.754;9.566;2022-09-09T04:15:56;13.10;99.90
19970;DHT22;10146;47.754;9.566;2022-09-09T04:18:22;13.20;99.90
19970;DHT22;10146;47.754;9.566;2022-09-09T04:20:50;13.10;99.90
19970;DHT22;10146;47.754;9.566;2022-09-09T04:23:16;13.10;99.90
19970;DHT22;10146;47.754;9.566;2022-09-09T04:25:54;13.20;99.90
19970;DHT22;10146;47.754;9.566;2022-09-09T04:28:22;13.30;99.90
19970;DHT22;10146;47.754;9.566;2022-09-09T04:30:48;13.30;99.90
19970;DHT22;10146;47.754;9.566;2022-09-09T04:33:14;13.30;99.90
19970;DHT22;10146;47.754;9.566;2022-09-09T04:35:45;13.30;99.90
19970;DHT22;10146;47.754;9.566;2022-09-09T04:38:11;13.30;99.90
19970;DHT22;10146;47.754;9.566;2022-09-09T04:40:37;13.30;99.90
19970;DHT22;10146;47.754;9.566;2022-09-09T04:43:08;13.40;99.90
19970;DHT22;10146;47.754;9.566;2022-09-09T04:45:34;13.40;99.90
19970;DHT22;10146;47.754;9.566;2022-09-09T04:47:59;13.40;99.90
19970;DHT22;10146;47.754;9.566;2022-09-09T04:50:25;13.50;99.90
19970;DHT22;10146;47.754;9.566;2022-09-09T04:52:51;13.50;99.90
19970;DHT22;10146;47.754;9.566;2022-09-09T04:55:16;13.50;99.90
19970;DHT22;10146;47.754;9.566;2022-09-09T04:57:42;13.50;99.90
19970;DHT22;10146;47.754;9.566;2022-09-09T05:00:08;13.50;99.90
19970;DHT22;10146;47.754;9.566;2022-09-09T05:02:39;13.60;99.90
19970;DHT22;10146;47.754;9.566;2022-09-09T05:05:05;13.50;99.90
19970;DHT22;10146;47.754;9.566;2022-09-09T05:07:31;13.50;99.90
19970;DHT22;10146;47.754;9.566;2022-09-09T05:09:57;13.50;99.90
19970;DHT22;10146;47.754;9.566;2022-09-09T05:12:23;13.50;99.90
19970;DHT22;10146;47.754;9.566;2022-09-09T05:14:51;13.50;99.90
19970;DHT22;10146;47.754;9.566;2022-09-09T05:17:16;13.50;99.90
19970;DHT22;10146;47.754;9.566;2022-09-09T05:19:42;13.50;99.90
19970;DHT22;10146;47.754;9.566;2022-09-09T05:22:08;13.60;99.90
19970;DHT22;10146;47.754;9.566;2022-09-09T05:24:34;13.60;99.90
19970;DHT22;10146;47.754;9.566;2022-09-09T05:26:59;13.70;99.90
19970;DHT22;10146;47.754;9.566;2022-09-09T05:29:27;13.70;99.90
19970;DHT22;10146;47.754;9.566;2022-09-09T05:31:53;13.70;99.90
19970;DHT22;10146;47.754;9.566;2022-09-09T05:34:19;13.80;99.90
19970;DHT22;10146;47.754;9.566;2022-09-09T05:36:46;13.80;99.90
19970;DHT22;10146;47.754;9.566;2022-09-09T05:39:12;13.90;99.90
19970;DHT22;10146;47.754;9.566;2022-09-09T05:41:37;14.00;99.90
19970;DHT22;10146;47.754;9.566;2022-09-09T05:44:03;14.00;99.90
19970;DHT22;10146;47.754;9.566;2022-09-09T05:46:29;14.00;99.90
19970;DHT22;10146;47.754;9.566;2022-09-09T05:48:55;14.00;99.90
19970;DHT22;10146;47.754;9.566;2022-09-09T05:51:23;14.00;99.90
19970;DHT22;10146;47.754;9.566;2022-09-09T05:53:50;14.00;99.90
19970;DHT22;10146;47.754;9.566;2022-09-09T05:56:21;14.00;99.90
19970;DHT22;10146;47.754;9.566;2022-09-09T05:58:49;14.00;99.90
19970;DHT22;10146;47.754;9.566;2022-09-09T06:01:17;14.00;99.90
19970;DHT22;10146;47.754;9.566;2022-09-09T06:03:44;14.00;99.90
19970;DHT22;10146;47.754;9.566;2022-09-09T06:06:15;14.00;99.90
19970;DHT22;10146;47.754;9.566;2022-09-09T06:08:43;14.10;99.90
19970;DHT22;10146;47.754;9.566;2022-09-09T06:11:30;14.00;99.90
19970;DHT22;10146;47.754;9.566;2022-09-09T06:13:59;14.10;99.90
19970;DHT22;10146;47.754;9.566;2022-09-09T06:16:26;14.20;99.90
19970;DHT22;10146;47.754;9.566;2022-09-09T06:18:54;14.30;99.90
19970;DHT22;10146;47.754;9.566;2022-09-09T06:21:25;14.30;99.90
19970;DHT22;10146;47.754;9.566;2022-09-09T06:23:51;14.30;99.90
19970;DHT22;10146;47.754;9.566;2022-09-09T06:26:20;14.50;99.90
19970;DHT22;10146;47.754;9.566;2022-09-09T06:28:48;14.50;99.90
19970;DHT22;10146;47.754;9.566;2022-09-09T06:31:17;14.60;99.90
19970;DHT22;10146;47.754;9.566;2022-09-09T06:33:43;14.60;99.90
19970;DHT22;10146;47.754;9.566;2022-09-09T06:36:12;14.60;99.90
19970;DHT22;10146;47.754;9.566;2022-09-09T06:38:39;14.60;99.90
19970;DHT22;10146;47.754;9.566;2022-09-09T06:41:05;14.70;99.90
19970;DHT22;10146;47.754;9.566;2022-09-09T06:43:31;14.70;99.90
19970;DHT22;10146;47.754;9.566;2022-09-09T06:45:59;14.70;99.90
19970;DHT22;10146;47.754;9.566;2022-09-09T06:48:26;14.60;99.90
19970;DHT22;10146;47.754;9.566;2022-09-09T06:53:32;14.70;99.90
19970;DHT22;10146;47.754;9.566;2022-09-09T06:56:02;14.70;99.90
19970;DHT22;10146;47.754;9.566;2022-09-09T06:58:42;14.80;99.90
19970;DHT22;10146;47.754;9.566;2022-09-09T07:01:10;14.90;99.90
19970;DHT22;10146;47.754;9.566;2022-09-09T07:03:38;14.90;99.90
19970;DHT22;10146;47.754;9.566;2022-09-09T07:06:05;14.90;99.90
19970;DHT22;10146;47.754;9.566;2022-09-09T07:08:31;15.00;99.90
19970;DHT22;10146;47.754;9.566;2022-09-09T07:11:07;15.10;99.90
19970;DHT22;10146;47.754;9.566;2022-09-09T07:13:33;15.10;99.90
19970;DHT22;10146;47.754;9.566;2022-09-09T07:16:10;15.10;99.90
19970;DHT22;10146;47.754;9.566;2022-09-09T07:18:36;15.10;99.90
19970;DHT22;10146;47.754;9.566;2022-09-09T07:21:03;15.30;99.90
19970;DHT22;10146;47.754;9.566;2022-09-09T07:23:30;15.40;99.90
19970;DHT22;10146;47.754;9.566;2022-09-09T07:25:57;15.40;99.90
19970;DHT22;10146;47.754;9.566;2022-09-09T07:28:23;15.50;99.90
19970;DHT22;10146;47.754;9.566;2022-09-09T07:30:56;15.60;99.90
19970;DHT22;10146;47.754;9.566;2022-09-09T07:33:24;15.70;99.90
19970;DHT22;10146;47.754;9.566;2022-09-09T07:35:50;15.80;99.90
19970;DHT22;10146;47.754;9.566;2022-09-09T07:38:16;15.80;99.90
19970;DHT22;10146;47.754;9.566;2022-09-09T07:40:42;15.80;99.90
19970;DHT22;10146;47.754;9.566;2022-09-09T07:43:07;15.80;99.90
19970;DHT22;10146;47.754;9.566;2022-09-09T07:45:34;15.80;99.90
19970;DHT22;10146;47.754;9.566;2022-09-09T07:48:01;15.90;99.90
19970;DHT22;10146;47.754;9.566;2022-09-09T07:50:26;15.80;99.90
19970;DHT22;10146;47.754;9.566;2022-09-09T07:52:53;15.80;99.90
19970;DHT22;10146;47.754;9.566;2022-09-09T07:55:22;15.80;99.90
19970;DHT22;10146;47.754;9.566;2022-09-09T07:57:53;15.80;99.90
19970;DHT22;10146;47.754;9.566;2022-09-09T08:00:19;15.90;99.90
19970;DHT22;10146;47.754;9.566;2022-09-09T08:02:47;16.00;99.90
19970;DHT22;10146;47.754;9.566;2022-09-09T08:05:13;16.20;99.90
19970;DHT22;10146;47.754;9.566;2022-09-09T08:07:38;16.30;99.90
19970;DHT22;10146;47.754;9.566;2022-09-09T08:10:04;16.30;99.90
19970;DHT22;10146;47.754;9.566;2022-09-09T08:12:31;16.50;99.90
19970;DHT22;10146;47.754;9.566;2022-09-09T08:14:57;16.60;99.90
19970;DHT22;10146;47.754;9.566;2022-09-09T08:17:23;16.80;99.90
19970;DHT22;10146;47.754;9.566;2022-09-09T08:19:49;16.90;99.90
19970;DHT22;10146;47.754;9.566;2022-09-09T08:22:14;17.00;99.90
19970;DHT22;10146;47.754;9.566;2022-09-09T08:24:40;17.00;99.90
19970;DHT22;10146;47.754;9.566;2022-09-09T08:27:06;17.10;99.90
19970;DHT22;10146;47.754;9.566;2022-09-09T08:29:32;17.10;99.90
19970;DHT22;10146;47.754;9.566;2022-09-09T08:31:58;17.20;99.90
19970;DHT22;10146;47.754;9.566;2022-09-09T08:34:25;17.30;99.90
19970;DHT22;10146;47.754;9.566;2022-09-09T08:36:52;17.30;99.90
19970;DHT22;10146;47.754;9.566;2022-09-09T08:39:20;17.30;99.90
19970;DHT22;10146;47.754;9.566;2022-09-09T08:53:24;17.60;99.90
19970;DHT22;10146;47.754;9.566;2022-09-09T08:55:59;17.60;99.90
19970;DHT22;10146;47.754;9.566;2022-09-09T08:58:29;17.60;99.90
19970;DHT22;10146;47.754;9.566;2022-09-09T09:04:10;17.60;99.90
19970;DHT22;10146;47.754;9.566;2022-09-09T09:07:18;17.70;99.90
19970;DHT22;10146;47.754;9.566;2022-09-09T09:12:24;17.90;99.90
19970;DHT22;10146;47.754;9.566;2022-09-09T09:14:50;18.10;99.90
19970;DHT22;10146;47.754;9.566;2022-09-09T09:17:20;18.30;99.90
19970;DHT22;10146;47.754;9.566;2022-09-09T09:19:48;18.30;99.90
19970;DHT22;10146;47.754;9.566;2022-09-09T09:22:21;18.30;99.90
19970;DHT22;10146;47.754;9.566;2022-09-09T09:25:08;18.40;99.90
19970;DHT22;10146;47.754;9.566;2022-09-09T09:28:00;18.50;99.90
19970;DHT22;10146;47.754;9.566;2022-09-09T09:33:51;18.50;99.90
19970;DHT22;10146;47.754;9.566;2022-09-09T09:36:19;18.60;99.90
19970;DHT22;10146;47.754;9.566;2022-09-09T09:38:56;18.70;99.90
19970;DHT22;10146;47.754;9.566;2022-09-09T09:41:49;18.70;99.90
19970;DHT22;10146;47.754;9.566;2022-09-09T09:44:31;18.80;99.90
19970;DHT22;10146;47.754;9.566;2022-09-09T09:47:13;18.90;99.90
19970;DHT22;10146;47.754;9.566;2022-09-09T09:49:54;19.20;99.90
19970;DHT22;10146;47.754;9.566;2022-09-09T09:52:26;19.20;99.90
19970;DHT22;10146;47.754;9.566;2022-09-09T09:54:53;19.30;99.90
19970;DHT22;10146;47.754;9.566;2022-09-09T09:57:24;19.30;99.90
19970;DHT22;10146;47.754;9.566;2022-09-09T10:00:13;19.20;99.90
19970;DHT22;10146;47.754;9.566;2022-09-09T10:02:42;19.00;99.90
19970;DHT22;10146;47.754;9.566;2022-09-09T10:05:16;18.70;99.90
19970;DHT22;10146;47.754;9.566;2022-09-09T10:07:43;18.60;99.90
19970;DHT22;10146;47.754;9.566;2022-09-09T10:10:20;18.70;99.90
19970;DHT22;10146;47.754;9.566;2022-09-09T10:18:57;18.80;99.90
19970;DHT22;10146;47.754;9.566;2022-09-09T10:40:32;19.50;99.90
19970;DHT22;10146;47.754;9.566;2022-09-09T10:46:01;19.60;99.90
19970;DHT22;10146;47.754;9.566;2022-09-09T10:48:35;19.70;99.90
19970;DHT22;10146;47.754;9.566;2022-09-09T10:56:16;20.10;99.90
19970;DHT22;10146;47.754;9.566;2022-09-09T11:01:52;19.90;99.90
19970;DHT22;10146;47.754;9.566;2022-09-09T11:04:55;20.30;99.90
19970;DHT22;10146;47.754;9.566;2022-09-09T11:07:39;20.50;99.90
19970;DHT22;10146;47.754;9.566;2022-09-09T11:10:52;20.60;99.90
19970;DHT22;10146;47.754;9.566;2022-09-09T11:16:10;21.00;99.90
19970;DHT22;10146;47.754;9.566;2022-09-09T11:18:39;21.00;99.90
19970;DHT22;10146;47.754;9.566;2022-09-09T11:21:14;20.60;99.90
19970;DHT22;10146;47.754;9.566;2022-09-09T11:23:47;20.30;99.90
19970;DHT22;10146;47.754;9.566;2022-09-09T11:26:21;20.20;99.90
19970;DHT22;10146;47.754;9.566;2022-09-09T11:28:55;20.10;99.90
19970;DHT22;10146;47.754;9.566;2022-09-09T11:37:08;20.30;99.90
19970;DHT22;10146;47.754;9.566;2022-09-09T11:39:58;20.50;99.90
19970;DHT22;10146;47.754;9.566;2022-09-09T11:42:27;20.60;99.90
19970;DHT22;10146;47.754;9.566;2022-09-09T11:44:53;20.60;99.90
19970;DHT22;10146;47.754;9.566;2022-09-09T11:47:30;20.60;99.90
19970;DHT22;10146;47.754;9.566;2022-09-09T11:52:43;20.60;99.90
19970;DHT22;10146;47.754;9.566;2022-09-09T11:55:19;20.80;99.90
19970;DHT22;10146;47.754;9.566;2022-09-09T11:57:57;20.80;99.90
19970;DHT22;10146;47.754;9.566;2022-09-09T12:03:49;20.30;99.90
19970;DHT22;10146;47.754;9.566;2022-09-09T12:06:18;20.20;99.90
19970;DHT22;10146;47.754;9.566;2022-09-09T12:08:52;20.30;99.90
19970;DHT22;10146;47.754;9.566;2022-09-09T12:11:26;20.40;99.90
19970;DHT22;10146;47.754;9.566;2022-09-09T12:13:54;20.30;99.90
19970;DHT22;10146;47.754;9.566;2022-09-09T12:16:35;20.30;99.90
19970;DHT22;10146;47.754;9.566;2022-09-09T12:19:05;20.40;99.90
19970;DHT22;10146;47.754;9.566;2022-09-09T12:22:16;20.40;99.90
19970;DHT22;10146;47.754;9.566;2022-09-09T12:24:30;20.60;99.90
19970;DHT22;10146;47.754;9.566;2022-09-09T12:27:14;20.50;99.90
19970;DHT22;10146;47.754;9.566;2022-09-09T12:30:14;20.30;99.90
19970;DHT22;10146;47.754;9.566;2022-09-09T12:32:40;20.10;99.90
19970;DHT22;10146;47.754;9.566;2022-09-09T12:35:20;20.00;99.90
19970;DHT22;10146;47.754;9.566;2022-09-09T12:37:54;20.20;99.90
19970;DHT22;10146;47.754;9.566;2022-09-09T12:40:29;20.30;99.90
19970;DHT22;10146;47.754;9.566;2022-09-09T12:42:56;20.30;99.90
19970;DHT22;10146;47.754;9.566;2022-09-09T12:45:24;20.50;99.90
19970;DHT22;10146;47.754;9.566;2022-09-09T12:47:52;20.70;99.90
19970;DHT22;10146;47.754;9.566;2022-09-09T12:50:24;20.90;99.90
19970;DHT22;10146;47.754;9.566;2022-09-09T12:53:03;21.10;99.90
19970;DHT22;10146;47.754;9.566;2022-09-09T12:55:38;21.40;99.90
19970;DHT22;10146;47.754;9.566;2022-09-09T12:58:05;21.60;99.90
19970;DHT22;10146;47.754;9.566;2022-09-09T13:00:33;21.80;99.90
19970;DHT22;10146;47.754;9.566;2022-09-09T13:03:01;21.80;99.90
19970;DHT22;10146;47.754;9.566;2022-09-09T13:05:38;21.90;99.90
19970;DHT22;10146;47.754;9.566;2022-09-09T13:08:09;22.10;99.90
19970;DHT22;10146;47.754;9.566;2022-09-09T13:10:51;22.10;99.90
19970;DHT22;10146;47.754;9.566;2022-09-09T13:13:26;22.30;99.90
19970;DHT22;10146;47.754;9.566;2022-09-09T13:15:54;22.20;99.90
19970;DHT22;10146;47.754;9.566;2022-09-09T13:18:41;22.30;99.90
19970;DHT22;10146;47.754;9.566;2022-09-09T13:21:07;22.60;99.90
19970;DHT22;10146;47.754;9.566;2022-09-09T13:23:35;22.70;99.90
19970;DHT22;10146;47.754;9.566;2022-09-09T13:26:22;22.60;99.90
19970;DHT22;10146;47.754;9.566;2022-09-09T13:28:48;23.10;99.90
19970;DHT22;10146;47.754;9.566;2022-09-09T13:31:28;23.30;99.90
19970;DHT22;10146;47.754;9.566;2022-09-09T13:33:54;23.40;99.90
19970;DHT22;10146;47.754;9.566;2022-09-09T13:36:29;23.60;99.90
19970;DHT22;10146;47.754;9.566;2022-09-09T13:38:57;23.80;99.90
19970;DHT22;10146;47.754;9.566;2022-09-09T13:41:44;23.80;99.90
19970;DHT22;10146;47.754;9.566;2022-09-09T13:44:27;24.00;99.90
19970;DHT22;10146;47.754;9.566;2022-09-09T13:47:16;24.00;99.90
19970;DHT22;10146;47.754;9.566;2022-09-09T13:49:44;23.80;96.20
19970;DHT22;10146;47.754;9.566;2022-09-09T13:52:16;24.00;96.00
19970;DHT22;10146;47.754;9.566;2022-09-09T13:54:47;24.00;93.60
19970;DHT22;10146;47.754;9.566;2022-09-09T13:57:22;24.10;93.80
19970;DHT22;10146;47.754;9.566;2022-09-09T13:59:48;24.20;92.60
19970;DHT22;10146;47.754;9.566;2022-09-09T14:02:15;24.40;92.40
19970;DHT22;10146;47.754;9.566;2022-09-09T14:04:42;24.40;91.50
19970;DHT22;10146;47.754;9.566;2022-09-09T14:07:12;24.30;91.80
19970;DHT22;10146;47.754;9.566;2022-09-09T14:09:38;24.70;91.50
19970;DHT22;10146;47.754;9.566;2022-09-09T14:12:05;25.00;90.10
19970;DHT22;10146;47.754;9.566;2022-09-09T14:14:31;25.00;88.60
19970;DHT22;10146;47.754;9.566;2022-09-09T14:16:56;25.00;86.70
19970;DHT22;10146;47.754;9.566;2022-09-09T14:19:22;25.00;87.40
19970;DHT22;10146;47.754;9.566;2022-09-09T14:21:47;25.20;88.40
19970;DHT22;10146;47.754;9.566;2022-09-09T14:24:14;25.30;87.50
19970;DHT22;10146;47.754;9.566;2022-09-09T14:26:39;25.50;87.00
19970;DHT22;10146;47.754;9.566;2022-09-09T14:29:06;25.80;87.20
19970;DHT22;10146;47.754;9.566;2022-09-09T14:31:31;25.70;85.20
19970;DHT22;10146;47.754;9.566;2022-09-09T14:33:57;25.60;87.10
19970;DHT22;10146;47.754;9.566;2022-09-09T14:36:24;25.50;87.10
19970;DHT22;10146;47.754;9.566;2022-09-09T14:38:50;25.60;87.90
19970;DHT22;10146;47.754;9.566;2022-09-09T14:41:17;25.60;89.30
19970;DHT22;10146;47.754;9.566;2022-09-09T14:43:43;25.80;88.30
19970;DHT22;10146;47.754;9.566;2022-09-09T14:46:11;26.00;87.00
19970;DHT22;10146;47.754;9.566;2022-09-09T14:48:37;26.70;84.60
19970;DHT22;10146;47.754;9.566;2022-09-09T14:51:11;27.10;80.90
19970;DHT22;10146;47.754;9.566;2022-09-09T14:53:38;27.10;79.00
19970;DHT22;10146;47.754;9.566;2022-09-09T14:56:09;27.70;76.10
19970;DHT22;10146;47.754;9.566;2022-09-09T14:58:36;28.40;73.90
19970;DHT22;10146;47.754;9.566;2022-09-09T15:01:10;29.10;71.30
19970;DHT22;10146;47.754;9.566;2022-09-09T15:03:38;29.80;67.60
19970;DHT22;10146;47.754;9.566;2022-09-09T15:06:08;29.70;65.50
19970;DHT22;10146;47.754;9.566;2022-09-09T15:08:40;29.30;65.40
19970;DHT22;10146;47.754;9.566;2022-09-09T15:11:06;29.50;64.30
19970;DHT22;10146;47.754;9.566;2022-09-09T15:13:33;29.00;64.30
19970;DHT22;10146;47.754;9.566;2022-09-09T15:16:28;27.80;65.30
19970;DHT22;10146;47.754;9.566;2022-09-09T15:18:56;26.30;70.10
19970;DHT22;10146;47.754;9.566;2022-09-09T15:21:25;24.80;75.10
19970;DHT22;10146;47.754;9.566;2022-09-09T15:23:51;24.20;78.80
19970;DHT22;10146;47.754;9.566;2022-09-09T15:26:18;25.20;78.40
19970;DHT22;10146;47.754;9.566;2022-09-09T15:28:45;27.10;72.80
19970;DHT22;10146;47.754;9.566;2022-09-09T15:31:17;26.80;73.20
19970;DHT22;10146;47.754;9.566;2022-09-09T15:34:06;25.90;73.00
19970;DHT22;10146;47.754;9.566;2022-09-09T15:36:37;24.70;78.20
19970;DHT22;10146;47.754;9.566;2022-09-09T15:39:04;23.90;84.20
19970;DHT22;10146;47.754;9.566;2022-09-09T15:41:31;23.20;87.50
19970;DHT22;10146;47.754;9.566;2022-09-09T15:43:59;22.60;90.40
19970;DHT22;10146;47.754;9.566;2022-09-09T15:46:44;22.30;92.90
19970;DHT22;10146;47.754;9.566;2022-09-09T15:49:12;22.00;95.30
19970;DHT22;10146;47.754;9.566;2022-09-09T15:51:40;22.00;99.30
19970;DHT22;10146;47.754;9.566;2022-09-09T15:54:06;22.50;99.90
19970;DHT22;10146;47.754;9.566;2022-09-09T15:56:32;23.40;99.90
19970;DHT22;10146;47.754;9.566;2022-09-09T15:58:58;24.30;97.00
19970;DHT22;10146;47.754;9.566;2022-09-09T16:01:26;24.60;93.60
19970;DHT22;10146;47.754;9.566;2022-09-09T16:03:52;24.60;92.40
19970;DHT22;10146;47.754;9.566;2022-09-09T16:06:20;24.30;91.90
19970;DHT22;10146;47.754;9.566;2022-09-09T16:08:49;24.00;91.90
19970;DHT22;10146;47.754;9.566;2022-09-09T16:11:18;24.00;92.30
19970;DHT22;10146;47.754;9.566;2022-09-09T16:13:46;23.60;93.30
19970;DHT22;10146;47.754;9.566;2022-09-09T16:16:14;23.20;93.90
19970;DHT22;10146;47.754;9.566;2022-09-09T16:18:45;22.90;94.40
19970;DHT22;10146;47.754;9.566;2022-09-09T16:21:15;22.50;95.70
19970;DHT22;10146;47.754;9.566;2022-09-09T16:23:41;22.30;97.50
19970;DHT22;10146;47.754;9.566;2022-09-09T16:26:11;22.10;99.50
19970;DHT22;10146;47.754;9.566;2022-09-09T16:28:37;21.70;99.90
19970;DHT22;10146;47.754;9.566;2022-09-09T16:31:10;21.40;99.90
19970;DHT22;10146;47.754;9.566;2022-09-09T16:33:37;21.20;99.90
19970;DHT22;10146;47.754;9.566;2022-09-09T16:36:11;20.90;99.90
19970;DHT22;10146;47.754;9.566;2022-09-09T16:38:38;20.60;99.90
19970;DHT22;10146;47.754;9.566;2022-09-09T16:41:05;20.40;99.90
19970;DHT22;10146;47.754;9.566;2022-09-09T16:43:34;20.30;99.90
19970;DHT22;10146;47.754;9.566;2022-09-09T16:46:02;20.10;99.90
19970;DHT22;10146;47.754;9.566;2022-09-09T16:48:32;20.00;99.90
19970;DHT22;10146;47.754;9.566;2022-09-09T16:51:06;19.90;99.90
19970;DHT22;10146;47.754;9.566;2022-09-09T16:53:33;19.80;99.90
19970;DHT22;10146;47.754;9.566;2022-09-09T16:56:08;19.70;99.90
19970;DHT22;10146;47.754;9.566;2022-09-09T16:58:34;19.60;99.90
19970;DHT22;10146;47.754;9.566;2022-09-09T17:01:01;19.40;99.90
19970;DHT22;10146;47.754;9.566;2022-09-09T17:03:27;19.20;99.90
19970;DHT22;10146;47.754;9.566;2022-09-09T17:05:53;19.10;99.90
19970;DHT22;10146;47.754;9.566;2022-09-09T17:08:19;18.90;99.90
19970;DHT22;10146;47.754;9.566;2022-09-09T17:10:45;18.90;99.90
19970;DHT22;10146;47.754;9.566;2022-09-09T17:13:11;18.70;99.90
19970;DHT22;10146;47.754;9.566;2022-09-09T17:15:42;18.60;99.90
19970;DHT22;10146;47.754;9.566;2022-09-09T17:18:11;18.40;99.90
19970;DHT22;10146;47.754;9.566;2022-09-09T17:20:41;18.30;99.90
19970;DHT22;10146;47.754;9.566;2022-09-09T17:23:10;18.40;99.90
19970;DHT22;10146;47.754;9.566;2022-09-09T17:25:37;18.10;99.90
19970;DHT22;10146;47.754;9.566;2022-09-09T17:28:03;18.00;99.90
19970;DHT22;10146;47.754;9.566;2022-09-09T17:30:33;18.00;99.90
19970;DHT22;10146;47.754;9.566;2022-09-09T17:32:59;18.10;99.90
19970;DHT22;10146;47.754;9.566;2022-09-09T17:35:25;18.00;99.90
19970;DHT22;10146;47.754;9.566;2022-09-09T17:37:53;17.90;99.90
19970;DHT22;10146;47.754;9.566;2022-09-09T17:40:20;17.80;99.90
19970;DHT22;10146;47.754;9.566;2022-09-09T17:42:46;17.60;99.90
19970;DHT22;10146;47.754;9.566;2022-09-09T17:45:12;17.60;99.90
19970;DHT22;10146;47.754;9.566;2022-09-09T17:47:38;17.50;99.90
19970;DHT22;10146;47.754;9.566;2022-09-09T17:50:05;17.50;99.90
19970;DHT22;10146;47.754;9.566;2022-09-09T17:52:32;17.60;99.90